Carthage, Ohio
Current Conditions -  °F | °C
As of 9:04 AM on Friday 24 Oct 2014 (Local Time) from KLUK Reporting Station
Haze Haze  
Wind Chill: 40°   Ceiling: 200
Heat Index: 40°   Visibility: 3mi
Dew Point: 40°   Wind: 0mph
Humidity: 100%   Direction: NA
Pressure: 30.16"   Gusts: NA
Location:  39.1981°N, 84.4817°W
Report Text: KLUK 241304Z 00000KT 3SM R21L/4000VP6000FT BR BKN002 04/04 A3016 RMK AO2 T00440044
Loading
Personal Weather Stations






























Interactive Weather Map
Tropical Storm Tracking
New forecast layout! Learn more

10-Day Weather Forecast

Advertisements
Track Severe Weather on mobile